Huvudsida
METAR-TAF:

METAR-TAF

Flygplatser :

Pulas flygplats

Pula, Kroatien

latitud: 44-54N, longitud: 013-55E, höjd: 63 m

Aktuellt väderrapport

Denna rapport gjordes för 37 minuter sedan, klockan 01:00 UTC
Vind 8 kt från ost/nordost
Temperatur 5°C
Fuktighet 65%
Tryck 1035 hPa
Sikt 10 km eller mer
Få moln på en höjd av 3700 ft

METAR: LDPL 200100Z 06008KT 9999 FEW037 05/M01 Q1035

Tid: 02:37 (01:37 UTC)

Väderprognos

Denna rapport gjordes för 2 timmar och 12 minuter sedan, klockan 23:25 UTC
Prognos gäller från 20 kl. 00 UTC till 21 kl. 00 UTC
Vind 12 kt från ost/nordost
Sikt 10 km eller mer
Få moln på en höjd av 4000 ft
Sannolikhet 40% :
Temporärt
från 20 kl. 00 UTC till 21 kl. 00 UTC
Vind 15 kt från ost/nordost i byarna ända upp till 25 kt

TAF: LDPL 192325Z 2000/2100 07012KT 9999 FEW040 TX09/2013Z TN04/2006Z PROB40 TEMPO 2000/2100 06015G25KT

Aktuella väderrapporter och prognoser från 4000 flygplatser (METAR- och TAF-rapporter).

De tillgängliga stationerna syns som gula och röda prickar på kartan.

För musen över prickarna för att se namnen på stationerna.

Klicka sedan för att få väderrapporter och prognoser.

För att ändra kartan: Klicka på de gröna knapparna med ett svart kors på för att zooma in; den gröna knappen med ett streck på för att zooma ut; eller på de gröna pilarna för angränsande kartor.


METAR-TAF: